Time;durP1;ratioP1;P1;durP2;ratioP2;P2;SDS_P1;SDS_P2;PMS_P1;PMS_P2;Temp;Humidity;BMP_temperature;BMP_pressure;BME280_temperature;BME280_humidity;BME280_pressure;Samples;Min_cycle;Max_cycle;Signal;HPM_P1;HPM_P2
2022/03/27 00:01:00;;;;;;;7.52;6.82;;;;;;;7.40;73.11;99593.76;458506;115;922475;-69
2022/03/27 00:02:05;;;;;;;7.42;6.60;;;;;;;7.40;72.89;99590.21;459429;115;930448;-68
2022/03/27 00:03:08;;;;;;;7.82;7.01;;;;;;;7.40;72.73;99590.21;459668;115;922658;-69
2022/03/27 00:04:11;;;;;;;7.14;6.47;;;;;;;7.41;72.69;99597.30;458302;115;930674;-68
2022/03/27 00:05:14;;;;;;;7.49;6.79;;;;;;;7.40;72.66;99590.21;458395;115;930564;-69
2022/03/27 00:06:17;;;;;;;7.86;7.09;;;;;;;7.40;72.49;99593.76;460409;115;922631;-69
2022/03/27 00:07:20;;;;;;;7.28;6.60;;;;;;;7.40;72.42;99590.21;459966;114;922823;-70
2022/03/27 00:08:23;;;;;;;6.88;6.25;;;;;;;7.38;72.36;99592.33;460603;115;922634;-68
2022/03/27 00:09:26;;;;;;;6.92;6.26;;;;;;;7.38;72.41;99590.45;460401;115;930530;-70
2022/03/27 00:10:29;;;;;;;7.27;6.61;;;;;;;7.38;72.33;99589.62;460519;115;922942;-69
2022/03/27 00:11:32;;;;;;;7.30;6.68;;;;;;;7.37;72.34;99586.08;460482;115;922505;-69
2022/03/27 00:12:36;;;;;;;7.03;6.43;;;;;;;7.37;72.32;99591.50;459164;115;922717;-69
2022/03/27 00:13:39;;;;;;;7.39;6.65;;;;;;;7.37;72.39;99593.38;457952;115;922743;-69
2022/03/27 00:14:42;;;;;;;7.89;7.19;;;;;;;7.37;72.39;99583.36;458048;115;922621;-68
2022/03/27 00:15:45;;;;;;;7.44;6.53;;;;;;;7.37;72.36;99599.63;456084;115;923479;-70
2022/03/27 00:16:48;;;;;;;7.00;6.29;;;;;;;7.38;72.33;99606.72;454794;115;923103;-70
2022/03/27 00:17:51;;;;;;;6.91;6.20;;;;;;;7.39;72.49;99667.19;455280;115;922559;-71
2022/03/27 00:18:54;;;;;;;5.46;3.73;;;;;;;7.39;72.61;99680.75;458089;115;922578;-70
2022/03/27 00:19:57;;;;;;;3.44;2.84;;;;;;;7.38;71.12;99676.40;458071;115;923196;-68
2022/03/27 00:21:00;;;;;;;3.46;2.14;;;;;;;7.35;70.08;99672.22;458001;115;922771;-69
2022/03/27 00:22:04;;;;;;;2.56;1.63;;;;;;;7.30;68.89;99663.08;454723;115;930396;-69
2022/03/27 00:23:07;;;;;;;1.45;1.14;;;;;;;7.25;67.93;99673.73;457992;115;923000;-70
2022/03/27 00:24:10;;;;;;;1.91;1.72;;;;;;;7.19;66.77;99680.02;458086;115;922543;-70
2022/03/27 00:25:13;;;;;;;1.96;1.41;;;;;;;7.13;66.90;99682.54;458078;115;922662;-70
2022/03/27 00:26:17;;;;;;;1.56;1.32;;;;;;;7.08;66.62;99692.36;456984;115;923116;-70
2022/03/27 00:27:20;;;;;;;2.36;1.41;;;;;;;7.02;66.59;99690.50;453685;115;930295;-70
2022/03/27 00:28:25;;;;;;;1.61;1.09;;;;;;;6.98;66.69;99681.98;447298;116;922523;-67
2022/03/27 00:29:28;;;;;;;1.13;0.87;;;;;;;6.94;66.75;99693.46;453387;116;922876;-69
2022/03/27 00:30:31;;;;;;;2.17;1.25;;;;;;;6.92;66.34;99704.51;454248;116;922586;-67
2022/03/27 00:31:38;;;;;;;1.27;0.89;;;;;;;6.87;65.79;99690.77;454267;116;922559;-68
2022/03/27 00:32:40;;;;;;;2.26;1.32;;;;;;;6.82;65.79;99690.58;454035;116;922587;-68
2022/03/27 00:33:45;;;;;;;1.04;0.79;;;;;;;6.76;64.81;99696.84;454207;116;922460;-68
2022/03/27 00:34:48;;;;;;;1.38;0.81;;;;;;;6.72;64.69;99697.48;454127;116;922979;-67
2022/03/27 00:35:51;;;;;;;1.36;0.81;;;;;;;6.64;64.06;99693.94;450178;116;922704;-67
2022/03/27 00:36:54;;;;;;;1.97;0.80;;;;;;;6.57;63.92;99706.65;447491;116;922655;-69
2022/03/27 00:37:57;;;;;;;1.58;0.94;;;;;;;6.49;63.76;99698.76;447933;116;922595;-69
2022/03/27 00:38:59;;;;;;;2.12;0.79;;;;;;;6.43;63.81;99694.17;448161;116;922902;-69
2022/03/27 00:40:03;;;;;;;1.75;0.84;;;;;;;6.40;63.93;99707.28;453596;116;922475;-67
2022/03/27 00:41:06;;;;;;;0.72;0.70;;;;;;;6.36;64.05;99706.88;454174;116;922548;-69
2022/03/27 00:42:10;;;;;;;1.34;0.75;;;;;;;6.35;64.02;99701.66;452102;116;923327;-65
2022/03/27 00:43:13;;;;;;;1.61;0.70;;;;;;;6.34;64.21;99700.02;449939;116;930611;-70
2022/03/27 00:44:15;;;;;;;1.16;0.96;;;;;;;6.32;64.19;99708.34;450502;116;922395;-68
2022/03/27 00:45:18;;;;;;;1.37;0.71;;;;;;;6.33;64.06;99711.89;454151;116;922871;-68
2022/03/27 00:46:22;;;;;;;2.61;0.81;;;;;;;6.32;64.08;99710.22;454164;116;923343;-67
2022/03/27 00:47:25;;;;;;;0.89;0.64;;;;;;;6.29;64.28;99716.86;450130;116;922935;-68
2022/03/27 00:48:28;;;;;;;1.71;0.93;;;;;;;6.28;64.42;99710.61;448109;116;922700;-67
2022/03/27 00:49:31;;;;;;;1.76;0.92;;;;;;;6.30;64.51;99705.00;448393;116;922571;-71
2022/03/27 00:50:34;;;;;;;1.63;0.98;;;;;;;6.31;64.54;99705.84;450064;116;923280;-69
2022/03/27 00:51:37;;;;;;;1.24;0.82;;;;;;;6.32;64.64;99705.64;454236;116;922570;-69
2022/03/27 00:52:40;;;;;;;1.84;1.30;;;;;;;6.33;64.38;99714.59;453910;116;922521;-67
2022/03/27 00:53:42;;;;;;;1.61;0.98;;;;;;;6.32;64.32;99715.62;454240;116;923016;-69
2022/03/27 00:54:45;;;;;;;1.58;1.05;;;;;;;6.30;64.39;99715.83;454258;116;922534;-68
2022/03/27 00:55:49;;;;;;;3.54;1.51;;;;;;;6.29;64.50;99725.82;454243;116;923376;-68
2022/03/27 00:56:52;;;;;;;1.47;1.16;;;;;;;6.30;64.43;99729.36;449990;116;923090;-69
2022/03/27 00:57:55;;;;;;;2.92;1.25;;;;;;;6.31;64.46;99724.78;447648;118;922591;-70
2022/03/27 00:58:58;;;;;;;2.63;1.27;;;;;;;6.32;64.34;99721.05;447231;118;924760;-70
2022/03/27 01:00:01;;;;;;;1.59;1.39;;;;;;;6.33;64.22;99733.55;447389;118;922534;-70
2022/03/27 01:01:06;;;;;;;2.42;1.42;;;;;;;6.32;63.97;99740.83;447194;118;922486;-69
2022/03/27 01:02:10;;;;;;;2.04;1.08;;;;;;;6.31;64.08;99747.28;447480;118;923195;-69
2022/03/27 01:03:23;;;;;;;2.59;1.28;;;;;;;6.28;63.96;99751.22;449631;118;922901;-69
2022/03/27 01:04:26;;;;;;;2.96;1.01;;;;;;;6.26;63.97;99753.32;447487;118;922589;-67
2022/03/27 01:05:29;;;;;;;1.91;1.19;;;;;;;6.20;63.78;99751.44;448337;118;922574;-69
2022/03/27 01:06:41;;;;;;;2.77;1.14;;;;;;;6.15;63.78;99751.23;449728;118;922184;-68
2022/03/27 01:07:44;;;;;;;1.42;0.96;;;;;;;6.12;63.94;99737.28;447948;117;922316;-71
2022/03/27 01:10:08;;;;;;;2.26;1.04;;;;;;;6.06;64.06;99754.34;448494;118;922600;-69
2022/03/27 01:11:20;;;;;;;2.11;0.99;;;;;;;6.03;64.19;99763.70;449690;118;922728;-69
2022/03/27 01:12:29;;;;;;;1.73;1.21;;;;;;;6.00;64.14;99768.70;449474;118;922318;-71
2022/03/27 01:13:35;;;;;;;2.74;1.71;;;;;;;5.95;64.48;99758.49;449521;118;922521;-69
2022/03/27 01:14:37;;;;;;;2.02;1.01;;;;;;;5.89;64.91;99750.36;449601;118;923332;-68
2022/03/27 01:15:45;;;;;;;2.25;0.89;;;;;;;5.83;64.72;99755.52;449785;118;930230;-70
2022/03/27 01:17:07;;;;;;;1.29;0.98;;;;;;;5.78;65.11;99762.58;449607;118;923200;-69
2022/03/27 01:18:08;;;;;;;2.29;1.05;;;;;;;5.72;65.37;99758.81;447331;117;924060;-69
2022/03/27 01:19:15;;;;;;;1.81;0.91;;;;;;;5.68;65.85;99760.23;446773;118;922559;-69
2022/03/27 01:20:24;;;;;;;1.86;0.86;;;;;;;5.66;65.91;99762.33;447025;118;923015;-69
2022/03/27 01:21:27;;;;;;;1.35;0.78;;;;;;;5.65;66.15;99767.93;447459;118;922674;-70
2022/03/27 01:22:30;;;;;;;1.50;0.99;;;;;;;5.61;66.06;99777.49;447809;118;922770;-66
2022/03/27 01:23:34;;;;;;;1.40;0.94;;;;;;;5.58;66.19;99794.94;446921;118;922535;-69
2022/03/27 01:24:37;;;;;;;1.81;0.99;;;;;;;5.56;65.91;99799.73;447035;118;922968;-69
2022/03/27 01:25:42;;;;;;;1.93;0.76;;;;;;;5.55;65.69;99794.52;447359;118;922944;-68
2022/03/27 01:26:45;;;;;;;2.20;0.95;;;;;;;5.51;65.76;99788.69;449067;118;922514;-68
2022/03/27 01:27:48;;;;;;;2.53;0.84;;;;;;;5.50;65.69;99781.61;449494;118;922639;-68
2022/03/27 01:28:51;;;;;;;2.30;0.68;;;;;;;5.48;65.71;99785.54;449527;118;930377;-67
2022/03/27 01:29:55;;;;;;;1.61;0.68;;;;;;;5.44;65.81;99783.25;448560;118;922669;-69
2022/03/27 01:30:59;;;;;;;1.54;0.86;;;;;;;5.43;65.62;99791.55;447063;118;922949;-68
2022/03/27 01:32:04;;;;;;;2.14;0.80;;;;;;;5.40;65.68;99797.38;447199;118;930342;-69
2022/03/27 01:33:10;;;;;;;1.48;0.75;;;;;;;5.35;65.68;99784.44;440581;120;922627;-70
2022/03/27 01:34:14;;;;;;;1.19;0.68;;;;;;;5.35;65.83;99789.00;446941;118;922565;-68
2022/03/27 01:35:19;;;;;;;1.40;0.76;;;;;;;5.35;65.88;99773.63;439682;120;922919;-70
2022/03/27 01:36:28;;;;;;;2.23;0.93;;;;;;;5.37;65.78;99781.55;449286;118;930270;-68
2022/03/27 01:37:31;;;;;;;1.32;0.70;;;;;;;5.38;65.52;99781.34;449341;118;922744;-69
2022/03/27 01:38:35;;;;;;;2.31;0.76;;;;;;;5.38;65.52;99781.34;449472;118;922610;-68
2022/03/27 01:39:38;;;;;;;1.42;0.79;;;;;;;5.37;65.41;99784.24;448723;118;922555;-69
2022/03/27 01:40:41;;;;;;;1.13;0.74;;;;;;;5.36;65.57;99777.16;448657;118;930193;-70
2022/03/27 01:41:44;;;;;;;1.31;0.84;;;;;;;5.36;65.59;99786.11;447960;118;922773;-68
2022/03/27 01:42:49;;;;;;;1.49;0.86;;;;;;;5.36;65.57;99786.11;448173;118;922538;-69
2022/03/27 01:43:52;;;;;;;1.13;0.68;;;;;;;5.39;65.53;99788.43;449370;118;930159;-68
2022/03/27 01:44:55;;;;;;;1.13;0.58;;;;;;;5.40;65.53;99791.97;449528;118;922885;-70
2022/03/27 01:45:58;;;;;;;1.31;0.73;;;;;;;5.40;65.48;99792.78;448273;118;922546;-68
2022/03/27 01:47:01;;;;;;;1.01;0.56;;;;;;;5.41;65.42;99799.02;447376;118;922712;-68
2022/03/27 01:48:05;;;;;;;2.15;1.07;;;;;;;5.42;65.43;99796.13;438879;120;922708;-68
2022/03/27 01:49:10;;;;;;;0.79;0.61;;;;;;;5.44;65.50;99801.34;448205;116;922629;-69
2022/03/27 01:50:13;;;;;;;1.78;0.69;;;;;;;5.45;65.30;99797.61;449144;116;922936;-68
2022/03/27 01:51:16;;;;;;;1.45;0.69;;;;;;;5.45;65.13;99790.33;453510;116;922613;-68
2022/03/27 01:52:19;;;;;;;2.19;0.71;;;;;;;5.46;65.15;99789.27;448297;116;922441;-66
2022/03/27 01:53:22;;;;;;;1.52;0.79;;;;;;;5.49;65.06;99795.33;450917;116;923125;-70
2022/03/27 01:54:25;;;;;;;1.70;0.71;;;;;;;5.50;65.08;99800.54;454263;116;922590;-70
2022/03/27 01:55:28;;;;;;;2.05;0.69;;;;;;;5.53;64.71;99804.70;454232;116;923028;-68
2022/03/27 01:56:32;;;;;;;1.07;0.68;;;;;;;5.54;64.61;99809.91;454246;116;922604;-70
2022/03/27 01:57:35;;;;;;;1.96;0.58;;;;;;;5.56;64.59;99815.12;454124;116;922895;-67
2022/03/27 01:58:39;;;;;;;1.50;0.84;;;;;;;5.55;64.54;99803.47;454159;116;922430;-69
2022/03/27 01:59:42;;;;;;;1.22;0.62;;;;;;;5.57;64.42;99801.38;451753;116;922584;-70
2022/03/27 02:00:45;;;;;;;1.57;0.70;;;;;;;5.58;64.11;99799.52;449968;116;922889;-68
2022/03/27 02:01:49;;;;;;;1.16;0.57;;;;;;;5.58;63.95;99799.52;451516;116;923028;-69
2022/03/27 02:02:53;;;;;;;0.84;0.56;;;;;;;5.58;63.88;99802.22;454104;116;922648;-70
2022/03/27 02:03:57;;;;;;;1.59;0.78;;;;;;;5.56;63.99;99791.62;454085;116;930279;-68
2022/03/27 02:05:01;;;;;;;0.79;0.76;;;;;;;5.56;63.62;99783.52;454174;116;930127;-68
2022/03/27 02:06:05;;;;;;;1.72;0.60;;;;;;;5.56;63.44;99782.68;453563;116;922632;-70
2022/03/27 02:07:08;;;;;;;0.86;0.50;;;;;;;5.55;63.19;99779.13;449393;116;930333;-68
2022/03/27 02:08:12;;;;;;;1.46;0.80;;;;;;;5.54;63.12;99787.44;454097;116;930154;-69
2022/03/27 02:09:17;;;;;;;1.24;0.68;;;;;;;5.51;63.03;99791.40;447935;116;922715;-69
2022/03/27 02:10:21;;;;;;;1.12;0.67;;;;;;;5.50;63.04;99795.13;449113;116;922695;-67
2022/03/27 02:11:24;;;;;;;1.47;0.61;;;;;;;5.49;62.91;99798.03;447375;116;922588;-67
2022/03/27 02:12:27;;;;;;;1.45;0.72;;;;;;;5.46;62.97;99791.98;446913;116;922698;-68
2022/03/27 02:13:30;;;;;;;1.21;0.75;;;;;;;5.45;63.05;99786.80;451462;116;923212;-67
2022/03/27 02:14:33;;;;;;;1.61;0.72;;;;;;;5.45;63.21;99795.74;457653;115;922843;-71
2022/03/27 02:15:36;;;;;;;1.42;1.18;;;;;;;5.45;63.14;99794.91;454667;115;922781;-69
2022/03/27 02:16:39;;;;;;;1.86;0.93;;;;;;;5.45;63.05;99792.20;463035;114;922977;-68
2022/03/27 02:17:42;;;;;;;1.09;0.84;;;;;;;5.43;63.06;99792.39;465082;114;922555;-68
2022/03/27 02:18:45;;;;;;;2.73;0.88;;;;;;;5.42;63.15;99801.53;465267;114;922612;-69
2022/03/27 02:19:48;;;;;;;1.49;0.90;;;;;;;5.43;63.20;99807.77;462609;114;922600;-70
2022/03/27 02:20:51;;;;;;;1.49;0.98;;;;;;;5.42;63.25;99809.64;463891;114;922749;-70
2022/03/27 02:21:54;;;;;;;3.46;1.20;;;;;;;5.43;63.29;99818.59;460772;114;922599;-68
2022/03/27 02:22:57;;;;;;;9.69;2.30;;;;;;;5.41;63.32;99804.42;461806;114;922540;-69
2022/03/27 02:24:03;;;;;;;2.14;1.02;;;;;;;5.39;63.37;99806.52;461325;114;923194;-71
2022/03/27 02:25:06;;;;;;;7.84;5.38;;;;;;;5.37;63.46;99808.58;464676;114;922523;-71
2022/03/27 02:26:10;;;;;;;12.72;10.03;;;;;;;5.35;63.56;99806.06;463704;114;922650;-71
2022/03/27 02:27:13;;;;;;;15.31;12.79;;;;;;;5.34;63.62;99807.12;461366;114;930340;-69
2022/03/27 02:28:16;;;;;;;12.09;10.61;;;;;;;5.34;63.70;99806.28;458769;114;922725;-71
2022/03/27 02:29:19;;;;;;;8.91;7.92;;;;;;;5.33;63.76;99808.15;461496;114;922659;-69
2022/03/27 02:30:23;;;;;;;7.65;6.99;;;;;;;5.33;63.79;99807.31;461031;114;922702;-68
2022/03/27 02:31:26;;;;;;;8.24;7.46;;;;;;;5.33;63.84;99805.45;464852;114;922922;-69
2022/03/27 02:32:29;;;;;;;5.86;5.35;;;;;;;5.33;64.00;99804.61;465178;114;922594;-70
2022/03/27 02:33:32;;;;;;;5.46;4.28;;;;;;;5.33;63.96;99807.31;462908;113;923149;-69
2022/03/27 02:34:34;;;;;;;2.58;2.36;;;;;;;5.32;64.06;99808.34;461946;114;922608;-68
2022/03/27 02:35:37;;;;;;;3.81;2.47;;;;;;;5.33;64.07;99801.91;465236;114;923533;-69
2022/03/27 02:36:40;;;;;;;4.08;1.98;;;;;;;5.31;64.19;99804.80;462523;114;922489;-70
2022/03/27 02:37:43;;;;;;;2.69;1.34;;;;;;;5.30;64.33;99804.99;462619;114;922698;-69
2022/03/27 02:38:47;;;;;;;3.87;2.28;;;;;;;5.30;64.45;99802.29;461122;114;922693;-67
2022/03/27 02:39:50;;;;;;;10.91;4.96;;;;;;;5.30;64.53;99800.42;462842;114;922521;-67
2022/03/27 02:40:53;;;;;;;16.65;6.81;;;;;;;5.30;64.71;99803.13;462921;114;930507;-69
2022/03/27 02:41:56;;;;;;;8.14;4.16;;;;;;;5.32;64.82;99797.53;463623;114;922574;-71
2022/03/27 02:43:01;;;;;;;12.24;6.42;;;;;;;5.32;64.61;99802.94;460029;114;922741;-69
2022/03/27 02:44:06;;;;;;;11.71;6.37;;;;;;;5.27;65.07;99808.95;461713;114;922533;-67
2022/03/27 02:45:10;;;;;;;7.36;3.66;;;;;;;5.27;65.07;99808.95;463174;114;922623;-70
2022/03/27 02:46:13;;;;;;;3.92;2.51;;;;;;;5.27;64.92;99800.00;461942;114;930763;-65
2022/03/27 02:47:16;;;;;;;3.92;1.21;;;;;;;5.26;64.92;99807.27;462512;114;922589;-69
2022/03/27 02:48:19;;;;;;;2.61;0.82;;;;;;;5.24;64.72;99806.62;465298;114;922628;-70
2022/03/27 02:49:21;;;;;;;4.12;0.79;;;;;;;5.22;64.45;99813.28;465306;114;922697;-68
2022/03/27 02:50:26;;;;;;;3.19;1.48;;;;;;;5.19;64.33;99806.39;465279;114;922553;-68
2022/03/27 02:51:29;;;;;;;3.25;0.80;;;;;;;5.16;64.45;99805.97;463477;114;922566;-69
2022/03/27 02:52:33;;;;;;;1.41;0.84;;;;;;;5.14;64.56;99806.16;464063;114;922492;-68
2022/03/27 02:53:35;;;;;;;3.60;1.20;;;;;;;5.12;64.69;99808.23;464262;114;922804;-68
2022/03/27 02:54:38;;;;;;;4.86;1.04;;;;;;;5.13;64.83;99795.56;461127;114;922495;-68
2022/03/27 02:55:41;;;;;;;2.01;0.94;;;;;;;5.12;64.97;99793.89;463383;113;922614;-67
2022/03/27 02:56:46;;;;;;;3.07;1.18;;;;;;;5.12;65.11;99792.03;465272;114;922560;-67
2022/03/27 02:57:49;;;;;;;1.56;0.76;;;;;;;5.12;65.09;99800.13;461352;114;922654;-68
2022/03/27 02:58:53;;;;;;;1.80;0.70;;;;;;;5.11;65.02;99793.05;462644;114;922677;-68
2022/03/27 02:59:56;;;;;;;1.35;0.80;;;;;;;5.07;64.92;99808.00;461460;114;922671;-66
2022/03/27 03:00:59;;;;;;;2.92;1.14;;;;;;;5.04;65.00;99802.98;461001;114;923194;-67
2022/03/27 03:02:04;;;;;;;3.38;1.11;;;;;;;5.03;65.30;99801.30;462659;114;922714;-69
2022/03/27 03:03:08;;;;;;;1.20;0.70;;;;;;;5.03;65.43;99795.90;459741;114;930338;-68
2022/03/27 03:04:13;;;;;;;1.81;0.74;;;;;;;5.04;65.36;99793.01;459369;114;930220;-68
2022/03/27 03:05:17;;;;;;;2.44;0.80;;;;;;;5.03;65.25;99791.33;460436;114;922732;-68
2022/03/27 03:06:22;;;;;;;1.38;0.89;;;;;;;5.03;65.22;99794.03;463097;114;922434;-69
2022/03/27 03:07:25;;;;;;;1.92;0.75;;;;;;;5.03;65.38;99791.33;464639;114;930198;-68
2022/03/27 03:08:28;;;;;;;1.39;1.02;;;;;;;5.04;65.34;99784.91;461928;114;922919;-69
2022/03/27 03:09:31;;;;;;;2.06;0.70;;;;;;;5.06;65.35;99786.58;464854;114;922530;-67
2022/03/27 03:10:34;;;;;;;1.72;0.69;;;;;;;5.07;65.39;99782.84;463370;114;923141;-71
2022/03/27 03:11:37;;;;;;;1.74;0.72;;;;;;;5.09;65.26;99786.16;461525;114;922652;-68
2022/03/27 03:12:40;;;;;;;1.31;0.67;;;;;;;5.09;65.32;99778.89;462224;114;922765;-69
2022/03/27 03:13:49;;;;;;;2.41;0.88;;;;;;;5.09;65.20;99767.25;461598;114;922778;-69
2022/03/27 03:14:48;;;;;;;1.22;0.66;;;;;;;5.09;65.07;99773.49;458931;114;922664;-68
2022/03/27 03:15:51;;;;;;;1.02;0.76;;;;;;;5.09;65.07;99784.30;460908;114;922543;-68
2022/03/27 03:16:55;;;;;;;2.21;0.86;;;;;;;5.08;65.05;99788.03;462200;114;922569;-71
2022/03/27 03:17:58;;;;;;;2.65;1.09;;;;;;;5.09;65.07;99794.27;465233;114;922676;-68
2022/03/27 03:19:02;;;;;;;2.69;1.38;;;;;;;5.07;65.04;99799.90;459198;114;923089;-69
2022/03/27 03:20:06;;;;;;;1.99;0.96;;;;;;;5.07;64.98;99815.27;459967;114;923047;-70
2022/03/27 03:21:10;;;;;;;1.92;0.92;;;;;;;5.03;65.00;99817.52;464907;114;922767;-69
2022/03/27 03:22:13;;;;;;;3.72;0.85;;;;;;;5.02;65.09;99829.34;462993;114;923098;-70
2022/03/27 03:23:16;;;;;;;1.41;0.94;;;;;;;5.01;65.14;99830.41;464954;114;922603;-68
2022/03/27 03:24:18;;;;;;;1.57;0.81;;;;;;;4.98;65.16;99828.91;462973;114;922596;-69
2022/03/27 03:25:21;;;;;;;1.29;0.94;;;;;;;4.97;65.15;99835.34;458512;114;922732;-70
2022/03/27 03:26:24;;;;;;;2.62;1.04;;;;;;;4.95;65.13;99839.30;462006;114;922647;-69
2022/03/27 03:27:27;;;;;;;2.14;0.98;;;;;;;4.94;65.14;99834.91;464668;114;922859;-71
2022/03/27 03:28:30;;;;;;;3.36;0.81;;;;;;;4.90;65.15;99831.78;465236;114;922633;-68
2022/03/27 03:29:33;;;;;;;2.08;0.98;;;;;;;4.89;65.10;99826.57;461248;114;922817;-69
2022/03/27 03:30:36;;;;;;;1.99;0.89;;;;;;;4.86;65.09;99835.05;458012;114;922529;-68
2022/03/27 03:31:39;;;;;;;1.06;0.94;;;;;;;4.82;65.09;99829.22;453551;116;923133;-69
2022/03/27 03:32:43;;;;;;;2.44;1.10;;;;;;;4.80;65.06;99830.42;455246;114;922695;-70
2022/03/27 03:33:45;;;;;;;1.69;0.70;;;;;;;4.77;65.09;99830.83;459933;114;922543;-68
2022/03/27 03:34:48;;;;;;;1.31;1.09;;;;;;;4.75;65.23;99836.42;464970;114;922585;-69
2022/03/27 03:35:51;;;;;;;1.37;1.02;;;;;;;4.76;65.26;99840.80;465288;114;922932;-68
2022/03/27 03:36:54;;;;;;;2.61;0.72;;;;;;;4.77;65.23;99839.77;463936;114;922700;-69
2022/03/27 03:37:58;;;;;;;2.34;0.82;;;;;;;4.76;65.18;99840.80;464019;114;923147;-69
2022/03/27 03:39:01;;;;;;;1.25;0.89;;;;;;;4.76;65.28;99839.95;463234;114;922537;-70
2022/03/27 03:40:08;;;;;;;1.82;0.68;;;;;;;4.76;65.26;99837.26;460486;114;922531;-69
2022/03/27 03:41:11;;;;;;;1.28;0.59;;;;;;;4.77;65.21;99844.33;464724;114;923010;-70
2022/03/27 03:42:14;;;;;;;1.82;0.68;;;;;;;4.76;65.16;99837.26;459644;114;922924;-66
2022/03/27 03:43:20;;;;;;;2.35;0.82;;;;;;;4.74;65.10;99832.05;459437;114;922976;-69
2022/03/27 03:44:24;;;;;;;0.95;0.81;;;;;;;4.71;65.08;99834.31;461003;114;923285;-67
2022/03/27 03:45:27;;;;;;;3.19;0.73;;;;;;;4.69;65.18;99839.06;460676;114;922917;-70
2022/03/27 03:46:30;;;;;;;1.26;0.84;;;;;;;4.65;65.17;99835.09;460746;114;922522;-67
2022/03/27 03:47:33;;;;;;;0.74;0.70;;;;;;;4.63;65.24;99849.61;460145;114;922534;-69
2022/03/27 03:48:36;;;;;;;2.01;0.81;;;;;;;4.63;65.33;99850.67;461862;114;922782;-68
2022/03/27 03:49:39;;;;;;;1.92;0.84;;;;;;;4.60;65.29;99852.72;462961;114;922625;-69
2022/03/27 03:50:42;;;;;;;0.74;0.61;;;;;;;4.57;65.33;99850.42;464801;114;923008;-69
2022/03/27 03:51:45;;;;;;;1.09;0.72;;;;;;;4.54;65.42;99858.88;464829;114;923004;-68
2022/03/27 03:52:48;;;;;;;1.13;0.66;;;;;;;4.52;65.47;99857.42;460161;114;922786;-69
2022/03/27 03:53:51;;;;;;;1.99;0.83;;;;;;;4.51;65.68;99853.89;459622;114;922390;-68
2022/03/27 03:54:54;;;;;;;1.09;0.90;;;;;;;4.50;65.67;99849.51;461205;113;922482;-68
2022/03/27 03:55:57;;;;;;;1.01;0.79;;;;;;;4.49;65.72;99853.23;463470;114;923025;-67
2022/03/27 03:57:02;;;;;;;1.11;0.84;;;;;;;4.51;65.85;99848.48;464109;114;922589;-69
2022/03/27 03:58:05;;;;;;;1.26;0.84;;;;;;;4.53;65.88;99846.41;464315;114;922649;-69
2022/03/27 03:59:08;;;;;;;1.55;0.66;;;;;;;4.57;65.85;99855.81;464825;114;922996;-69
2022/03/27 04:00:15;;;;;;;1.87;0.75;;;;;;;4.58;65.81;99860.16;464977;114;922612;-68
2022/03/27 04:01:18;;;;;;;1.61;0.86;;;;;;;4.61;65.80;99862.49;459573;114;922610;-68
2022/03/27 04:02:21;;;;;;;2.38;0.70;;;;;;;4.62;65.81;99863.33;461851;114;922589;-69
2022/03/27 04:03:24;;;;;;;1.93;0.82;;;;;;;4.63;65.71;99865.00;460634;114;922711;-69
2022/03/27 04:04:28;;;;;;;2.89;1.37;;;;;;;4.64;65.72;99861.25;462924;114;922519;-70
2022/03/27 04:05:31;;;;;;;5.80;3.46;;;;;;;4.65;65.74;99865.63;463463;114;922663;-71
2022/03/27 04:06:34;;;;;;;5.44;3.18;;;;;;;4.67;65.60;99860.04;461850;113;930562;-69
2022/03/27 04:07:37;;;;;;;5.11;3.18;;;;;;;4.67;65.54;99866.28;459536;113;923161;-68
2022/03/27 04:08:40;;;;;;;4.49;2.92;;;;;;;4.68;65.54;99870.66;459129;114;922746;-69
2022/03/27 04:09:43;;;;;;;3.44;2.43;;;;;;;4.69;65.51;99852.56;460247;114;922578;-68
2022/03/27 04:10:46;;;;;;;2.86;2.11;;;;;;;4.70;65.52;99862.34;459928;114;922531;-67
2022/03/27 04:11:49;;;;;;;3.26;1.12;;;;;;;4.71;65.53;99856.75;458292;114;923206;-71
2022/03/27 04:12:52;;;;;;;2.26;1.20;;;;;;;4.71;65.46;99856.75;463089;114;922555;-71
2022/03/27 04:13:54;;;;;;;1.76;1.05;;;;;;;4.71;65.46;99858.61;465137;114;922523;-69
2022/03/27 04:14:57;;;;;;;1.75;0.75;;;;;;;4.71;65.46;99856.75;459616;114;922645;-68
2022/03/27 04:16:00;;;;;;;1.59;0.72;;;;;;;4.72;65.47;99853.02;461299;114;922620;-68
2022/03/27 04:17:04;;;;;;;1.62;0.82;;;;;;;4.73;65.48;99860.11;464811;114;922603;-70
2022/03/27 04:18:07;;;;;;;1.02;0.56;;;;;;;4.72;65.41;99854.89;460292;114;922530;-70
2022/03/27 04:19:11;;;;;;;4.02;0.79;;;;;;;4.71;65.32;99861.31;461211;114;922703;-70
2022/03/27 04:20:16;;;;;;;0.66;0.51;;;;;;;4.67;65.24;99860.88;462182;113;922590;-69
2022/03/27 04:21:20;;;;;;;1.19;0.58;;;;;;;4.63;65.18;99868.52;462120;114;922745;-69
2022/03/27 04:22:23;;;;;;;1.40;0.69;;;;;;;4.57;65.24;99876.58;459717;113;922666;-70
2022/03/27 04:23:25;;;;;;;1.48;0.81;;;;;;;4.54;65.33;99876.95;465293;114;922622;-71
2022/03/27 04:24:28;;;;;;;3.11;0.76;;;;;;;4.51;65.44;99872.78;465279;114;922934;-68
2022/03/27 04:25:31;;;;;;;1.12;0.63;;;;;;;4.49;65.59;99872.13;465254;114;922413;-70
2022/03/27 04:26:35;;;;;;;1.25;0.62;;;;;;;4.49;65.71;99871.30;463586;114;922555;-70
2022/03/27 04:27:38;;;;;;;1.41;0.75;;;;;;;4.49;65.77;99864.03;460404;114;922626;-68
2022/03/27 04:28:41;;;;;;;0.75;0.41;;;;;;;4.49;65.77;99871.30;459169;114;922484;-68
2022/03/27 04:29:44;;;;;;;1.66;0.53;;;;;;;4.47;65.77;99874.17;463974;114;922975;-69
2022/03/27 04:30:47;;;;;;;2.49;0.61;;;;;;;4.46;65.88;99874.39;460716;114;922549;-69
2022/03/27 04:31:51;;;;;;;1.45;0.74;;;;;;;4.46;65.91;99880.63;459333;114;922639;-68
2022/03/27 04:32:54;;;;;;;2.12;0.42;;;;;;;4.47;65.84;99876.88;459555;113;922486;-70
2022/03/27 04:33:57;;;;;;;1.69;0.70;;;;;;;4.48;65.81;99872.31;462833;114;922679;-69
2022/03/27 04:35:00;;;;;;;1.42;0.42;;;;;;;4.49;65.89;99874.83;464064;114;922525;-67
2022/03/27 04:36:04;;;;;;;1.22;0.62;;;;;;;4.51;66.04;99880.88;461976;114;922998;-70
2022/03/27 04:37:07;;;;;;;0.48;0.35;;;;;;;4.54;66.07;99883.18;460942;114;930195;-70
2022/03/27 04:38:10;;;;;;;1.06;0.48;;;;;;;4.55;65.87;99882.16;463303;114;922573;-70
2022/03/27 04:39:12;;;;;;;1.11;0.50;;;;;;;4.55;65.79;99879.46;464734;113;922867;-68
2022/03/27 04:40:18;;;;;;;1.99;0.70;;;;;;;4.55;65.85;99882.16;459789;114;923005;-68
2022/03/27 04:41:21;;;;;;;1.04;0.53;;;;;;;4.56;65.72;99886.53;462770;114;922562;-69
2022/03/27 04:42:26;;;;;;;1.84;0.85;;;;;;;4.54;65.55;99885.88;465279;114;923460;-69
2022/03/27 04:43:29;;;;;;;1.61;0.61;;;;;;;4.54;65.56;99877.78;460283;114;923097;-69
2022/03/27 04:44:32;;;;;;;1.21;0.59;;;;;;;4.53;65.72;99881.50;462637;114;930243;-69
2022/03/27 04:45:35;;;;;;;0.71;0.49;;;;;;;4.50;65.54;99890.00;462788;114;922524;-69
2022/03/27 04:46:38;;;;;;;1.97;0.72;;;;;;;4.48;65.34;99889.34;463580;114;922611;-70
2022/03/27 04:47:41;;;;;;;0.84;0.69;;;;;;;4.45;65.39;99881.65;463600;114;922589;-70
2022/03/27 04:48:45;;;;;;;0.68;0.61;;;;;;;4.40;65.46;99886.79;463074;114;922602;-71
2022/03/27 04:49:48;;;;;;;1.40;0.56;;;;;;;4.38;65.56;99882.59;462629;114;922888;-70
2022/03/27 04:50:53;;;;;;;1.74;1.13;;;;;;;4.36;65.73;99890.04;459615;114;922486;-69
2022/03/27 04:51:56;;;;;;;3.12;2.34;;;;;;;4.36;65.87;99888.17;463016;114;922549;-67
2022/03/27 04:52:59;;;;;;;6.03;4.09;;;;;;;4.34;65.99;99892.95;460403;114;922649;-68
2022/03/27 04:54:02;;;;;;;3.13;2.20;;;;;;;4.33;65.97;99887.73;460561;114;922680;-70
2022/03/27 04:55:07;;;;;;;5.42;4.09;;;;;;;4.30;65.87;99888.13;459581;114;923117;-67
2022/03/27 04:56:10;;;;;;;2.59;1.08;;;;;;;4.27;65.93;99888.50;462410;114;922478;-68
2022/03/27 04:57:13;;;;;;;1.87;1.34;;;;;;;4.25;66.05;99887.84;462878;114;922510;-68
2022/03/27 04:58:17;;;;;;;1.82;0.84;;;;;;;4.23;66.16;99882.66;461198;114;922974;-68
2022/03/27 04:59:20;;;;;;;1.69;0.77;;;;;;;4.22;66.08;99883.68;458985;114;922699;-67
2022/03/27 05:00:23;;;;;;;1.83;0.50;;;;;;;4.22;66.16;99886.37;460793;114;922621;-70
2022/03/27 05:01:26;;;;;;;0.90;0.51;;;;;;;4.23;66.13;99898.84;461852;114;922567;-68